Time;durP1;ratioP1;P1;durP2;ratioP2;P2;SDS_P1;SDS_P2;PMS_P1;PMS_P2;Temp;Humidity;BMP_temperature;BMP_pressure;BME280_temperature;BME280_humidity;BME280_pressure;Samples;Min_cycle;Max_cycle;Signal;HPM_P1;HPM_P2
2022/04/02 00:01:50;;;;;;;3.30;1.57;;;3.70;99.90;;;;;;4037162;29;20177;-89
2022/04/02 00:03:51;;;;;;;4.10;1.90;;;3.60;99.90;;;;;;4052653;29;20713;-89
2022/04/02 00:05:52;;;;;;;7.30;2.20;;;3.70;99.90;;;;;;4052581;29;20180;-89
2022/04/02 00:07:53;;;;;;;7.00;1.97;;;3.70;99.90;;;;;;4052481;29;20180;-88
2022/04/02 00:09:53;;;;;;;3.60;1.80;;;3.70;99.90;;;;;;4037081;29;20241;-88
2022/04/02 00:11:54;;;;;;;6.27;2.23;;;3.70;99.90;;;;;;4052703;29;20593;-88
2022/04/02 00:13:55;;;;;;;6.27;2.93;;;3.80;99.90;;;;;;4040026;29;20261;-88
2022/04/02 00:15:57;;;;;;;5.33;2.40;;;3.80;99.90;;;;;;4071029;29;20221;-88
2022/04/02 00:17:59;;;;;;;6.37;2.50;;;3.90;99.90;;;;;;4039925;29;20225;-88
2022/04/02 00:20:00;;;;;;;7.77;3.10;;;3.80;99.90;;;;;;4055314;29;20204;-89
2022/04/02 00:22:00;;;;;;;6.00;2.70;;;3.80;99.90;;;;;;4055367;29;20640;-89
2022/04/02 00:24:01;;;;;;;8.97;2.70;;;3.70;99.90;;;;;;4039666;29;20189;-89
2022/04/02 00:26:04;;;;;;;5.17;2.40;;;3.50;99.90;;;;;;4039608;29;20350;-88
2022/04/02 00:28:06;;;;;;;5.57;2.07;;;3.40;99.90;;;;;;4039857;29;20174;-88
2022/04/02 00:30:07;;;;;;;6.60;2.53;;;3.40;99.90;;;;;;4039844;29;20205;-88
2022/04/02 00:32:08;;;;;;;8.70;2.77;;;3.40;99.90;;;;;;4039785;29;20693;-88
2022/04/02 00:34:11;;;;;;;9.67;3.17;;;3.30;99.90;;;;;;4039937;29;20181;-88
2022/04/02 00:36:13;;;;;;;9.07;3.23;;;3.20;99.90;;;;;;4055036;29;20241;-89
2022/04/02 00:38:14;;;;;;;6.57;2.93;;;3.20;99.90;;;;;;4054865;29;20530;-88
2022/04/02 00:40:15;;;;;;;7.50;2.43;;;3.20;99.90;;;;;;4055272;29;20192;-88
2022/04/02 00:42:17;;;;;;;8.80;2.87;;;3.20;99.90;;;;;;4039754;29;20170;-89
2022/04/02 00:44:17;;;;;;;7.77;3.37;;;3.20;99.90;;;;;;4065763;29;20192;-88
2022/04/02 00:46:19;;;;;;;6.10;2.87;;;3.10;99.90;;;;;;4063954;29;20189;-88
2022/04/02 00:48:20;;;;;;;8.03;3.03;;;3.00;99.90;;;;;;4070775;29;20231;-89
2022/04/02 00:50:21;;;;;;;5.77;2.80;;;3.00;99.90;;;;;;4054816;29;20260;-88
2022/04/02 00:52:24;;;;;;;7.30;3.17;;;2.90;99.90;;;;;;4054358;29;20181;-88
2022/04/02 00:54:25;;;;;;;10.07;3.33;;;2.80;99.90;;;;;;4054808;29;20209;-90
2022/04/02 00:56:27;;;;;;;9.83;3.50;;;2.80;99.90;;;;;;4039210;29;20193;-88
2022/04/02 00:58:27;;;;;;;7.40;3.53;;;2.90;99.90;;;;;;4054675;29;20201;-88
2022/04/02 01:00:28;;;;;;;7.97;2.93;;;2.90;99.90;;;;;;4054998;29;20184;-88
2022/04/02 01:02:29;;;;;;;10.10;3.20;;;2.80;99.90;;;;;;4054850;29;20181;-88
2022/04/02 01:04:31;;;;;;;6.80;3.10;;;2.80;99.90;;;;;;4054493;29;20241;-88
2022/04/02 01:06:33;;;;;;;8.47;2.97;;;2.80;99.90;;;;;;4039268;29;20190;-88
2022/04/02 01:08:34;;;;;;;10.53;3.13;;;2.80;99.90;;;;;;4039229;29;20178;-88
2022/04/02 01:10:36;;;;;;;7.43;2.53;;;2.80;99.90;;;;;;4054845;29;20219;-88
2022/04/02 01:12:37;;;;;;;6.93;2.70;;;2.90;99.90;;;;;;4054646;29;20181;-88
2022/04/02 01:14:38;;;;;;;12.00;3.00;;;2.80;99.90;;;;;;4039047;29;20236;-88
2022/04/02 01:16:51;;;;;;;6.60;2.67;;;2.80;99.90;;;;;;4041121;29;20220;-88
2022/04/02 01:18:58;;;;;;;9.10;2.77;;;2.70;99.90;;;;;;4055266;29;20185;-88
2022/04/02 01:21:00;;;;;;;6.17;3.03;;;2.80;99.90;;;;;;4055155;29;20187;-89
2022/04/02 01:23:08;;;;;;;8.67;3.07;;;2.70;99.90;;;;;;4054260;29;20176;-88
2022/04/02 01:25:16;;;;;;;6.07;2.67;;;2.70;99.90;;;;;;4054434;29;20183;-89
2022/04/02 01:27:22;;;;;;;9.63;2.50;;;2.70;99.90;;;;;;4054139;29;20217;-88
2022/04/02 01:29:34;;;;;;;9.37;2.73;;;2.80;99.90;;;;;;4055099;29;20725;-89
2022/04/02 01:31:44;;;;;;;8.93;3.00;;;2.70;99.90;;;;;;4055946;29;20176;-88
2022/04/02 01:33:48;;;;;;;10.47;3.53;;;2.70;99.90;;;;;;4054445;29;20176;-88
2022/04/02 01:36:01;;;;;;;7.20;2.67;;;2.70;99.90;;;;;;4069788;29;20173;-89
2022/04/02 01:38:03;;;;;;;9.47;2.97;;;2.70;99.90;;;;;;4038603;29;20241;-88
2022/04/02 01:40:06;;;;;;;8.50;2.57;;;2.70;99.90;;;;;;4069906;29;20233;-88
2022/04/02 01:42:24;;;;;;;11.27;2.80;;;2.70;99.90;;;;;;4039739;29;20201;-88
2022/04/02 01:44:34;;;;;;;13.40;2.30;;;2.60;99.90;;;;;;4068699;29;20180;-88
2022/04/02 01:46:34;;;;;;;7.93;2.90;;;2.70;99.90;;;;;;4038427;29;20205;-89
2022/04/02 01:48:35;;;;;;;8.80;2.77;;;2.70;99.90;;;;;;4054070;29;20590;-88
2022/04/02 01:50:40;;;;;;;5.87;2.73;;;2.50;99.90;;;;;;4053999;29;20221;-88
2022/04/02 01:52:41;;;;;;;5.40;2.70;;;2.60;99.90;;;;;;4038696;29;20218;-88
2022/04/02 01:54:48;;;;;;;8.33;3.13;;;2.60;99.90;;;;;;4053971;29;20196;-88
2022/04/02 01:56:51;;;;;;;9.47;2.90;;;2.60;99.90;;;;;;4038703;29;20221;-88
2022/04/02 01:58:54;;;;;;;7.83;2.83;;;2.50;99.90;;;;;;4053892;29;20273;-88
2022/04/02 02:00:58;;;;;;;6.20;2.47;;;2.60;99.90;;;;;;4069520;29;20171;-88
2022/04/02 02:02:59;;;;;;;7.40;2.83;;;2.50;99.90;;;;;;4069469;29;20188;-88
2022/04/02 02:05:00;;;;;;;11.93;2.73;;;2.50;99.90;;;;;;4054194;29;20172;-88
2022/04/02 02:07:01;;;;;;;7.00;2.73;;;2.50;99.90;;;;;;4038253;29;20213;-88
2022/04/02 02:09:02;;;;;;;8.53;2.97;;;2.50;99.90;;;;;;4053726;29;20177;-88
2022/04/02 02:11:26;;;;;;;13.97;2.90;;;2.40;99.90;;;;;;4041219;29;20212;-88
2022/04/02 02:13:35;;;;;;;8.23;2.80;;;2.50;99.90;;;;;;4053971;29;20176;-88
2022/04/02 02:15:40;;;;;;;9.67;2.80;;;2.40;99.90;;;;;;4054024;29;20193;-88
2022/04/02 02:17:41;;;;;;;5.80;2.50;;;2.50;99.90;;;;;;4054407;29;20279;-88
2022/04/02 02:19:42;;;;;;;7.97;2.90;;;2.40;99.90;;;;;;4038107;29;20184;-88
2022/04/02 02:21:43;;;;;;;5.93;2.30;;;2.40;99.90;;;;;;4053366;29;20259;-89
2022/04/02 02:23:51;;;;;;;8.83;2.27;;;2.50;99.90;;;;;;4053946;29;20181;-88
2022/04/02 02:25:51;;;;;;;6.37;2.63;;;2.40;99.90;;;;;;4053479;29;20176;-89
2022/04/02 02:27:53;;;;;;;9.00;2.70;;;2.50;99.90;;;;;;4053969;29;20240;-87
2022/04/02 02:29:57;;;;;;;4.53;2.63;;;2.40;99.90;;;;;;4038460;29;20300;-89
2022/04/02 02:31:58;;;;;;;5.40;2.30;;;2.40;99.90;;;;;;4053393;29;20184;-88
2022/04/02 02:36:26;;;;;;;7.10;2.17;;;2.30;99.90;;;;;;4052753;29;20197;-88
2022/04/02 02:38:34;;;;;;;10.60;2.73;;;2.20;99.90;;;;;;4053227;29;20172;-89
2022/04/02 02:40:47;;;;;;;9.93;3.00;;;2.30;99.90;;;;;;4053288;29;20180;-88
2022/04/02 02:42:52;;;;;;;7.47;2.83;;;2.30;99.90;;;;;;4038278;29;20181;-89
2022/04/02 02:45:01;;;;;;;7.83;2.73;;;2.20;99.90;;;;;;4053340;29;20244;-88
2022/04/02 02:47:06;;;;;;;7.30;3.13;;;2.10;99.90;;;;;;4053223;29;20316;-88
2022/04/02 02:49:08;;;;;;;5.73;2.23;;;2.20;99.90;;;;;;4037735;29;20276;-89
2022/04/02 02:51:11;;;;;;;7.27;3.07;;;2.30;99.90;;;;;;4053100;29;20181;-88
2022/04/02 02:53:13;;;;;;;5.67;2.30;;;2.30;99.90;;;;;;4068690;29;20211;-88
2022/04/02 02:55:14;;;;;;;9.60;2.23;;;2.10;99.90;;;;;;4037783;29;20173;-88
2022/04/02 02:57:15;;;;;;;6.70;2.53;;;1.90;99.90;;;;;;4052868;29;20232;-88
2022/04/02 02:59:16;;;;;;;8.40;2.67;;;1.90;99.90;;;;;;4053088;29;20169;-88
2022/04/02 03:01:18;;;;;;;7.70;3.07;;;1.90;99.90;;;;;;4037786;29;20177;-88
2022/04/02 03:03:22;;;;;;;5.17;2.50;;;2.00;99.90;;;;;;4053050;29;20176;-88
2022/04/02 03:05:25;;;;;;;8.63;3.23;;;2.10;99.90;;;;;;4052844;29;20234;-89
2022/04/02 03:07:34;;;;;;;7.63;2.77;;;2.00;99.90;;;;;;4052830;29;20673;-88
2022/04/02 03:09:35;;;;;;;7.10;2.53;;;2.00;99.90;;;;;;4037537;29;20234;-88
2022/04/02 03:11:36;;;;;;;7.90;2.70;;;2.00;99.90;;;;;;4037482;29;20177;-88
2022/04/02 03:13:38;;;;;;;6.27;2.67;;;2.10;99.90;;;;;;4037327;29;20181;-88
2022/04/02 03:15:42;;;;;;;4.33;2.57;;;2.10;99.90;;;;;;4037747;29;20190;-88
2022/04/02 03:17:45;;;;;;;7.60;2.63;;;2.10;99.90;;;;;;4053420;29;20222;-88
2022/04/02 03:19:46;;;;;;;5.40;2.83;;;2.10;99.90;;;;;;4038305;29;20184;-88
2022/04/02 03:21:47;;;;;;;10.40;2.57;;;2.10;99.90;;;;;;4071362;29;20216;-88
2022/04/02 03:23:48;;;;;;;6.57;2.30;;;2.10;99.90;;;;;;4051650;29;20182;-89
2022/04/02 03:25:53;;;;;;;6.17;3.10;;;2.10;99.90;;;;;;4045194;29;20184;-88
2022/04/02 03:27:54;;;;;;;6.63;2.17;;;2.20;99.90;;;;;;4037545;29;20170;-88
2022/04/02 03:29:56;;;;;;;9.30;2.87;;;2.20;99.90;;;;;;4053420;29;20247;-88
2022/04/02 03:31:57;;;;;;;5.53;2.30;;;2.20;99.90;;;;;;4052587;29;20172;-88
2022/04/02 03:34:01;;;;;;;15.93;2.50;;;2.20;99.90;;;;;;4053348;29;20512;-89
2022/04/02 03:36:02;;;;;;;5.37;2.57;;;2.20;99.90;;;;;;4052860;29;20225;-90
2022/04/02 03:38:02;;;;;;;5.57;2.47;;;2.30;99.90;;;;;;4037160;29;20258;-89
2022/04/02 03:40:09;;;;;;;5.27;2.70;;;2.30;99.90;;;;;;4052903;29;20184;-90
2022/04/02 03:42:09;;;;;;;5.70;2.30;;;2.20;99.90;;;;;;4052662;29;20181;-88
2022/04/02 03:44:10;;;;;;;5.77;1.90;;;2.30;99.90;;;;;;4052811;29;20173;-89
2022/04/02 03:48:30;;;;;;;6.20;2.43;;;2.30;99.90;;;;;;4055188;29;20232;-88
2022/04/02 03:50:31;;;;;;;5.87;2.50;;;2.30;99.90;;;;;;4055793;29;20217;-88
2022/04/02 03:52:33;;;;;;;5.20;1.83;;;2.30;99.90;;;;;;4056056;29;20169;-88
2022/04/02 03:54:41;;;;;;;5.23;2.37;;;2.30;99.90;;;;;;4055713;29;20172;-88
2022/04/02 03:56:44;;;;;;;6.57;2.13;;;2.30;99.90;;;;;;4055521;29;20288;-88
2022/04/02 03:58:48;;;;;;;4.40;2.00;;;2.30;99.90;;;;;;4055581;29;20185;-89
2022/04/02 04:00:51;;;;;;;4.53;2.27;;;2.30;99.90;;;;;;4071026;29;20642;-89
2022/04/02 04:02:52;;;;;;;7.83;2.63;;;2.30;99.90;;;;;;4040106;29;20177;-88
2022/04/02 04:05:06;;;;;;;6.77;2.50;;;2.20;99.90;;;;;;4055629;29;20256;-88
2022/04/02 04:07:08;;;;;;;6.57;2.60;;;2.20;99.90;;;;;;4039983;29;20209;-88
2022/04/02 04:09:11;;;;;;;4.83;2.17;;;2.30;99.90;;;;;;4055354;29;20177;-89
2022/04/02 04:11:14;;;;;;;5.93;2.43;;;2.30;99.90;;;;;;4055577;29;20173;-89
2022/04/02 04:13:15;;;;;;;5.63;2.47;;;2.30;99.90;;;;;;4039775;29;20681;-88
2022/04/02 04:15:16;;;;;;;6.53;2.83;;;2.20;99.90;;;;;;4055052;29;20249;-88
2022/04/02 04:17:18;;;;;;;8.37;2.50;;;2.10;99.90;;;;;;4070844;29;20692;-88
2022/04/02 04:19:21;;;;;;;4.27;2.30;;;2.00;99.90;;;;;;4055413;29;20207;-88
2022/04/02 04:21:24;;;;;;;5.97;2.53;;;2.10;99.90;;;;;;4039873;29;20177;-88
2022/04/02 04:23:27;;;;;;;5.70;2.40;;;2.10;99.90;;;;;;4055437;29;20228;-88
2022/04/02 04:25:31;;;;;;;10.50;2.53;;;2.20;99.90;;;;;;4070747;29;20184;-88
2022/04/02 04:27:33;;;;;;;6.37;2.40;;;2.10;99.90;;;;;;4055174;29;20285;-89
2022/04/02 04:29:35;;;;;;;4.93;2.17;;;2.10;99.90;;;;;;4039692;29;20251;-88
2022/04/02 04:31:36;;;;;;;5.03;2.43;;;2.10;99.90;;;;;;4040139;29;20190;-88
2022/04/02 04:33:38;;;;;;;7.73;2.30;;;2.20;99.90;;;;;;4039709;29;20253;-89
2022/04/02 04:35:38;;;;;;;14.37;2.13;;;2.10;99.90;;;;;;4056552;29;20173;-88
2022/04/02 04:37:39;;;;;;;8.20;2.43;;;2.10;99.90;;;;;;4040379;29;20200;-87
2022/04/02 04:39:51;;;;;;;4.97;1.93;;;2.10;99.90;;;;;;4055547;29;20692;-87
2022/04/02 04:41:53;;;;;;;4.10;1.67;;;2.10;99.90;;;;;;4039290;29;20184;-88
2022/04/02 04:44:00;;;;;;;6.60;1.97;;;2.10;99.90;;;;;;4054872;29;20661;-88
2022/04/02 04:46:09;;;;;;;4.70;2.00;;;2.10;99.90;;;;;;4054974;29;20180;-89
2022/04/02 04:48:10;;;;;;;7.17;2.40;;;2.10;99.90;;;;;;4055635;29;20160;-88
2022/04/02 04:50:21;;;;;;;3.93;1.97;;;2.10;99.90;;;;;;4055529;29;20244;-88
2022/04/02 04:52:26;;;;;;;3.80;1.77;;;2.10;99.90;;;;;;4056948;29;20185;-89
2022/04/02 04:54:26;;;;;;;2.47;1.80;;;2.10;99.90;;;;;;4054668;29;20676;-88
2022/04/02 04:56:27;;;;;;;3.73;1.90;;;2.20;99.90;;;;;;4039020;29;20229;-89
2022/04/02 04:58:29;;;;;;;4.80;1.60;;;2.20;99.90;;;;;;4054223;29;20176;-88
2022/04/02 05:00:34;;;;;;;4.07;1.90;;;2.20;99.90;;;;;;4070643;29;20172;-88
2022/04/02 05:02:36;;;;;;;5.33;1.90;;;2.20;99.90;;;;;;4055136;29;20180;-89
2022/04/02 05:04:39;;;;;;;6.23;2.40;;;2.20;99.90;;;;;;4054871;29;20197;-88
2022/04/02 05:06:41;;;;;;;5.83;1.80;;;2.20;99.90;;;;;;4039443;29;20193;-88
2022/04/02 05:08:42;;;;;;;7.03;2.30;;;2.20;99.90;;;;;;4055456;29;20181;-88
2022/04/02 05:10:43;;;;;;;3.53;1.77;;;2.30;99.90;;;;;;4054505;29;20252;-88
2022/04/02 05:12:49;;;;;;;5.77;1.73;;;2.30;99.90;;;;;;4055208;29;20169;-88
2022/04/02 05:14:50;;;;;;;3.83;1.97;;;2.20;99.90;;;;;;4070224;29;20210;-88
2022/04/02 05:16:55;;;;;;;5.07;2.10;;;2.20;99.90;;;;;;4070133;29;20248;-88
2022/04/02 05:19:02;;;;;;;7.57;2.00;;;2.20;99.90;;;;;;4069716;29;20182;-89
2022/04/02 05:21:04;;;;;;;5.00;2.10;;;2.30;99.90;;;;;;4054535;29;20351;-88
2022/04/02 05:23:07;;;;;;;5.43;1.80;;;2.20;99.90;;;;;;4054530;29;20171;-89
2022/04/02 05:25:10;;;;;;;4.30;2.00;;;2.30;99.90;;;;;;4039288;29;20667;-88
2022/04/02 05:27:13;;;;;;;6.23;2.00;;;2.20;99.90;;;;;;4054389;29;20287;-88
2022/04/02 05:29:14;;;;;;;7.97;1.80;;;2.20;99.90;;;;;;4054420;29;20562;-88
2022/04/02 05:31:14;;;;;;;4.80;2.00;;;2.20;99.90;;;;;;4055705;29;20169;-92
2022/04/02 05:33:15;;;;;;;3.67;1.80;;;2.20;99.90;;;;;;4038742;29;20566;-89
2022/04/02 05:35:16;;;;;;;3.63;2.10;;;2.20;99.90;;;;;;4038740;29;20651;-88
2022/04/02 05:37:16;;;;;;;3.67;1.40;;;2.20;99.90;;;;;;4055002;29;20292;-88
2022/04/02 05:39:17;;;;;;;4.60;1.77;;;2.20;99.90;;;;;;4038843;29;20639;-88
2022/04/02 05:41:18;;;;;;;4.37;1.93;;;2.20;99.90;;;;;;4054166;29;20177;-88
2022/04/02 05:43:19;;;;;;;6.63;1.67;;;2.20;99.90;;;;;;4055131;29;20193;-88
2022/04/02 05:45:20;;;;;;;3.23;1.93;;;2.20;99.90;;;;;;4054061;29;20261;-88
2022/04/02 05:47:21;;;;;;;7.03;1.70;;;2.20;99.90;;;;;;4039575;29;20204;-88
2022/04/02 05:49:21;;;;;;;8.77;2.13;;;2.20;99.90;;;;;;4039703;29;20260;-88
2022/04/02 05:51:22;;;;;;;5.53;1.97;;;2.20;99.90;;;;;;4038289;29;20176;-88
2022/04/02 05:53:23;;;;;;;8.10;2.47;;;2.20;99.90;;;;;;4053852;29;20173;-87
2022/04/02 05:55:24;;;;;;;5.03;2.00;;;2.20;99.90;;;;;;4054035;29;20573;-88
2022/04/02 05:57:24;;;;;;;7.27;2.20;;;2.30;99.90;;;;;;4053715;29;20212;-88
2022/04/02 05:59:25;;;;;;;8.70;2.90;;;2.20;99.90;;;;;;4038624;29;20261;-87
2022/04/02 06:01:26;;;;;;;9.90;3.00;;;2.20;99.90;;;;;;4054370;29;20200;-88
2022/04/02 06:03:27;;;;;;;7.20;2.70;;;2.20;99.90;;;;;;4054757;29;20188;-88
2022/04/02 06:05:28;;;;;;;7.40;2.57;;;2.20;99.90;;;;;;4061971;29;20176;-88
2022/04/02 06:07:28;;;;;;;3.80;1.80;;;2.20;99.90;;;;;;4053702;29;20325;-88
2022/04/02 06:09:29;;;;;;;3.90;1.90;;;2.20;99.90;;;;;;4057083;29;20216;-88
2022/04/02 06:11:31;;;;;;;7.83;2.13;;;2.30;99.90;;;;;;4069146;29;20566;-88
2022/04/02 06:13:32;;;;;;;5.57;1.80;;;2.30;99.90;;;;;;4038151;29;20208;-88
2022/04/02 06:15:34;;;;;;;4.97;2.07;;;2.30;99.90;;;;;;4037787;29;20198;-88
2022/04/02 06:17:35;;;;;;;9.83;2.17;;;2.30;99.90;;;;;;4053467;29;20208;-88
2022/04/02 06:19:36;;;;;;;4.67;2.00;;;2.30;99.90;;;;;;4038147;29;20524;-89
2022/04/02 06:21:37;;;;;;;5.20;1.83;;;2.40;99.90;;;;;;4054246;29;20213;-88
2022/04/02 06:23:38;;;;;;;7.27;2.43;;;2.40;99.90;;;;;;4053718;29;20197;-88
2022/04/02 06:25:39;;;;;;;6.50;2.40;;;2.40;99.90;;;;;;4053539;29;20185;-88
2022/04/02 06:27:47;;;;;;;5.40;2.00;;;2.30;99.90;;;;;;4038312;29;20197;-89
2022/04/02 06:29:48;;;;;;;6.27;2.30;;;2.40;99.90;;;;;;4037951;29;20315;-88
2022/04/02 06:31:49;;;;;;;10.50;1.97;;;2.50;99.90;;;;;;4054007;29;20535;-90
2022/04/02 06:33:50;;;;;;;8.40;2.60;;;2.50;99.90;;;;;;4038443;29;20233;-89
2022/04/02 06:35:52;;;;;;;6.43;2.00;;;2.50;99.90;;;;;;4038074;29;20174;-89
2022/04/02 06:37:54;;;;;;;4.47;2.27;;;2.60;99.90;;;;;;4054030;29;20176;-90
2022/04/02 06:39:55;;;;;;;5.80;1.60;;;2.50;99.90;;;;;;4038213;29;20169;-89
2022/04/02 06:41:55;;;;;;;4.37;1.90;;;2.60;99.90;;;;;;4053535;29;20192;-89
2022/04/02 06:44:08;;;;;;;5.97;1.90;;;2.60;99.90;;;;;;4053573;29;20176;-89
2022/04/02 06:46:09;;;;;;;2.90;1.57;;;2.70;99.90;;;;;;4037914;29;20189;-89
2022/04/02 06:48:10;;;;;;;7.97;1.90;;;2.70;99.90;;;;;;4053176;29;20181;-88
2022/04/02 06:50:13;;;;;;;13.47;2.37;;;2.60;99.90;;;;;;4053479;29;20213;-90
2022/04/02 06:52:14;;;;;;;8.40;2.30;;;2.60;99.90;;;;;;4053458;29;20191;-88
2022/04/02 06:54:15;;;;;;;9.87;3.20;;;2.70;99.90;;;;;;4068824;29;20192;-90
2022/04/02 06:56:15;;;;;;;10.93;3.00;;;2.70;99.90;;;;;;4053439;29;20203;-89
2022/04/02 06:58:26;;;;;;;5.93;1.70;;;2.70;99.90;;;;;;4053090;29;20215;-89
2022/04/02 07:00:27;;;;;;;8.03;1.83;;;2.70;99.90;;;;;;4037778;29;20197;-89
2022/04/02 07:02:28;;;;;;;5.80;1.93;;;2.80;99.90;;;;;;4053146;29;20180;-89
2022/04/02 07:04:29;;;;;;;3.37;1.50;;;2.80;99.90;;;;;;4053068;29;20168;-89
2022/04/02 07:06:32;;;;;;;5.63;2.00;;;2.80;99.90;;;;;;4052988;29;20573;-90
2022/04/02 07:08:35;;;;;;;7.73;1.87;;;2.90;99.90;;;;;;4053225;29;20173;-89
2022/04/02 07:10:36;;;;;;;4.23;1.70;;;2.90;99.90;;;;;;4037769;29;20229;-90
2022/04/02 07:12:37;;;;;;;5.03;1.77;;;2.90;99.90;;;;;;4037500;29;20551;-89
2022/04/02 07:14:38;;;;;;;4.67;1.50;;;2.90;99.90;;;;;;4037373;29;20204;-89
2022/04/02 07:16:45;;;;;;;6.40;2.30;;;3.00;99.90;;;;;;4052708;29;20192;-90
2022/04/02 07:18:48;;;;;;;2.73;1.70;;;3.10;99.90;;;;;;4052881;29;20184;-90
2022/04/02 07:20:56;;;;;;;7.40;1.87;;;3.20;99.90;;;;;;4052609;29;20181;-89
2022/04/02 07:22:59;;;;;;;7.00;2.37;;;3.20;99.90;;;;;;4037605;29;20192;-89
2022/04/02 07:25:00;;;;;;;7.60;2.00;;;3.30;99.90;;;;;;4053129;29;20259;-89
2022/04/02 07:27:02;;;;;;;5.77;2.20;;;3.50;99.90;;;;;;4039623;29;20201;-90
2022/04/02 07:29:03;;;;;;;5.13;1.60;;;3.50;99.90;;;;;;4052556;29;20629;-89
2022/04/02 07:31:04;;;;;;;5.50;1.90;;;3.70;99.90;;;;;;4052887;29;20203;-89
2022/04/02 07:33:06;;;;;;;4.03;1.40;;;3.90;99.90;;;;;;4052899;29;20170;-90
2022/04/02 07:35:07;;;;;;;2.97;1.47;;;4.00;99.90;;;;;;4037393;29;20185;-89
2022/04/02 07:37:30;;;;;;;4.23;1.87;;;4.10;99.90;;;;;;4037628;29;20269;-90
2022/04/02 07:39:43;;;;;;;4.13;1.30;;;4.30;99.90;;;;;;4037941;29;20188;-89
2022/04/02 07:42:18;;;;;;;3.80;1.53;;;4.40;99.90;;;;;;4196387;28;20532;-88
2022/04/02 07:44:29;;;;;;;4.93;1.80;;;4.70;99.90;;;;;;4195759;28;20193;-88
2022/04/02 07:46:33;;;;;;;3.33;1.70;;;4.90;99.90;;;;;;4189925;28;20191;-88
2022/04/02 07:48:41;;;;;;;5.13;1.60;;;5.10;99.90;;;;;;4162598;28;20198;-88
2022/04/02 07:50:44;;;;;;;2.80;1.57;;;5.50;99.90;;;;;;4162473;28;20179;-89
2022/04/02 07:52:49;;;;;;;2.80;1.53;;;5.80;99.90;;;;;;4162556;28;20172;-88
2022/04/02 07:54:56;;;;;;;3.30;1.60;;;6.00;99.90;;;;;;4162434;28;20172;-89
2022/04/02 07:57:03;;;;;;;4.37;1.93;;;5.80;99.90;;;;;;4162802;28;20192;-90
2022/04/02 07:59:25;;;;;;;3.10;1.57;;;5.80;99.90;;;;;;4162960;28;20254;-89
2022/04/02 08:01:27;;;;;;;4.03;1.77;;;5.90;99.90;;;;;;4162106;28;20208;-87
2022/04/02 08:03:30;;;;;;;4.53;1.53;;;6.00;99.90;;;;;;4162509;28;20164;-89
2022/04/02 08:05:31;;;;;;;5.30;1.80;;;6.00;99.90;;;;;;4162421;28;20173;-89
2022/04/02 08:07:38;;;;;;;3.53;1.40;;;6.10;99.90;;;;;;4162839;28;20189;-89
2022/04/02 08:09:39;;;;;;;3.80;1.53;;;6.10;99.90;;;;;;4162215;28;20179;-89
2022/04/02 08:11:40;;;;;;;5.17;2.10;;;6.20;99.90;;;;;;4178586;28;20172;-87
2022/04/02 08:13:43;;;;;;;4.10;2.17;;;6.10;99.90;;;;;;4161958;28;20184;-88
2022/04/02 08:15:45;;;;;;;9.47;2.00;;;5.80;99.90;;;;;;4162099;28;20678;-90
2022/04/02 08:17:53;;;;;;;6.40;1.77;;;5.60;99.90;;;;;;4178821;28;20802;-89
2022/04/02 08:19:55;;;;;;;2.73;1.73;;;5.60;99.90;;;;;;4162171;28;20302;-89
2022/04/02 08:21:57;;;;;;;4.87;1.77;;;5.60;99.90;;;;;;4161941;28;20208;-90
2022/04/02 08:24:01;;;;;;;5.33;1.80;;;5.60;99.90;;;;;;4178293;28;20164;-90
2022/04/02 08:26:22;;;;;;;2.70;1.60;;;5.70;99.90;;;;;;4162407;28;20211;-89
2022/04/02 08:28:28;;;;;;;3.87;1.67;;;5.90;99.90;;;;;;4161955;28;20196;-90
2022/04/02 08:30:32;;;;;;;5.40;1.90;;;6.10;99.90;;;;;;4162084;28;20188;-88
2022/04/02 08:33:07;;;;;;;4.83;1.80;;;6.20;99.90;;;;;;4162086;28;20260;-89
2022/04/02 08:35:11;;;;;;;3.23;1.63;;;6.30;99.90;;;;;;4161815;28;20192;-88
2022/04/02 08:37:42;;;;;;;3.47;1.43;;;6.00;99.90;;;;;;4161655;28;20192;-89
2022/04/02 08:39:59;;;;;;;9.13;2.33;;;6.00;99.90;;;;;;4154080;28;20188;-89
2022/04/02 08:42:36;;;;;;;4.20;1.97;;;6.10;99.90;;;;;;4161808;28;20212;-90
2022/04/02 08:45:03;;;;;;;6.07;2.13;;;6.20;99.90;;;;;;4178269;28;20663;-89
2022/04/02 08:47:07;;;;;;;3.93;1.90;;;6.20;99.90;;;;;;4178330;28;20200;-89
2022/04/02 08:49:20;;;;;;;4.07;1.90;;;6.20;99.90;;;;;;4178466;28;20175;-88
2022/04/02 08:51:42;;;;;;;4.87;2.07;;;6.20;99.90;;;;;;4161732;28;20202;-90
2022/04/02 08:53:54;;;;;;;6.73;2.00;;;6.50;99.90;;;;;;4150085;28;20177;-89
2022/04/02 08:56:01;;;;;;;4.27;1.90;;;6.70;99.90;;;;;;4150546;28;20160;-88
2022/04/02 08:58:09;;;;;;;3.67;1.60;;;6.90;99.90;;;;;;4150652;28;20176;-90
2022/04/02 09:00:13;;;;;;;2.67;1.70;;;7.20;99.90;;;;;;4150281;28;20200;-89
2022/04/02 09:02:32;;;;;;;7.50;1.97;;;7.40;99.90;;;;;;4150910;28;20285;-89
2022/04/02 09:04:35;;;;;;;6.27;3.03;;;7.50;99.90;;;;;;4150642;28;20211;-88
2022/04/02 09:06:42;;;;;;;5.93;1.80;;;7.10;99.90;;;;;;4150412;28;20555;-89
2022/04/02 09:09:10;;;;;;;3.77;2.10;;;6.80;99.90;;;;;;4150469;28;20233;-89
2022/04/02 09:11:24;;;;;;;5.10;2.10;;;6.60;99.90;;;;;;4150609;28;20645;-89
2022/04/02 09:13:40;;;;;;;4.67;2.10;;;6.50;99.90;;;;;;4150667;28;20211;-89
2022/04/02 09:16:16;;;;;;;6.70;1.90;;;6.50;99.90;;;;;;4166506;28;20203;-89
2022/04/02 09:18:23;;;;;;;5.77;2.17;;;6.60;99.90;;;;;;4153643;28;20206;-88
2022/04/02 09:20:36;;;;;;;5.37;1.90;;;6.60;99.90;;;;;;4150208;28;20185;-89
2022/04/02 09:23:44;;;;;;;6.87;2.40;;;6.80;99.90;;;;;;4166522;28;20366;-90
2022/04/02 09:26:09;;;;;;;3.53;1.80;;;7.10;99.90;;;;;;4093603;29;20178;-89
2022/04/02 09:28:28;;;;;;;4.37;2.03;;;7.30;99.90;;;;;;4101480;28;20233;-89
2022/04/02 09:30:56;;;;;;;6.43;1.90;;;7.00;99.90;;;;;;4136199;28;20709;-88
2022/04/02 09:33:27;;;;;;;4.47;2.07;;;7.10;99.90;;;;;;4156291;28;20653;-89
2022/04/02 09:35:45;;;;;;;5.50;2.27;;;7.10;99.90;;;;;;4149946;28;20223;-89
2022/04/02 09:38:04;;;;;;;2.90;1.67;;;7.00;99.90;;;;;;4166397;28;20253;-89
2022/04/02 09:40:06;;;;;;;7.43;1.93;;;6.80;99.90;;;;;;4166781;28;20656;-89
2022/04/02 09:42:25;;;;;;;6.67;2.00;;;6.70;99.90;;;;;;4149625;28;20557;-88
2022/04/02 09:44:46;;;;;;;6.60;2.13;;;6.90;99.90;;;;;;4168919;28;20176;-89
2022/04/02 09:47:00;;;;;;;3.97;2.00;;;6.80;99.90;;;;;;4154819;28;20203;-93
2022/04/02 09:49:35;;;;;;;3.37;1.80;;;6.20;99.90;;;;;;4149954;28;20259;-89
2022/04/02 09:51:42;;;;;;;5.93;1.63;;;6.00;99.90;;;;;;4146401;28;20184;-91
2022/04/02 09:54:14;;;;;;;4.80;1.83;;;5.90;99.90;;;;;;4150316;28;20230;-89
2022/04/02 09:56:29;;;;;;;3.40;1.93;;;5.60;99.90;;;;;;4149202;28;20550;-88
2022/04/02 09:59:04;;;;;;;5.07;1.87;;;5.40;99.90;;;;;;4149677;28;20227;-88
2022/04/02 10:01:08;;;;;;;6.13;2.17;;;5.30;99.90;;;;;;4150196;28;20267;-88
2022/04/02 10:03:18;;;;;;;4.70;1.93;;;5.50;99.90;;;;;;4166420;28;20190;-90
2022/04/02 10:05:27;;;;;;;3.33;1.90;;;6.10;99.90;;;;;;4148665;28;20169;-87
2022/04/02 10:08:03;;;;;;;2.80;1.70;;;6.60;99.90;;;;;;4149622;28;20196;-89
2022/04/02 10:10:06;;;;;;;4.50;2.17;;;6.70;99.90;;;;;;4139347;28;20255;-88
2022/04/02 10:12:09;;;;;;;5.37;1.30;;;6.60;99.90;;;;;;4149529;28;20533;-91
2022/04/02 10:14:11;;;;;;;3.83;1.80;;;6.60;99.90;;;;;;4149633;28;20181;-89
2022/04/02 10:16:14;;;;;;;4.27;1.80;;;6.40;99.90;;;;;;4149703;28;20365;-88
2022/04/02 10:18:20;;;;;;;5.00;2.00;;;6.20;99.90;;;;;;4149438;28;20169;-88
2022/04/02 10:20:28;;;;;;;1.97;1.17;;;6.10;99.90;;;;;;4149320;28;20165;-88
2022/04/02 10:22:36;;;;;;;3.60;1.57;;;6.00;99.90;;;;;;4149291;28;20180;-87
2022/04/02 10:24:50;;;;;;;3.83;1.60;;;5.90;99.90;;;;;;4149376;28;20169;-88
2022/04/02 10:26:54;;;;;;;3.57;1.57;;;5.80;99.90;;;;;;4149164;28;20243;-89
2022/04/02 10:28:57;;;;;;;6.93;1.80;;;5.70;99.90;;;;;;4149152;28;20164;-92
2022/04/02 10:31:00;;;;;;;6.00;1.57;;;5.90;99.90;;;;;;4165540;28;20181;-89
2022/04/02 10:33:26;;;;;;;2.30;1.40;;;6.20;99.90;;;;;;4149442;28;20177;-89
2022/04/02 10:35:27;;;;;;;5.23;1.70;;;6.60;99.90;;;;;;4165999;28;20175;-88
2022/04/02 10:37:38;;;;;;;4.43;1.80;;;6.50;99.90;;;;;;4149043;28;20200;-88
2022/04/02 10:40:00;;;;;;;2.93;1.83;;;6.30;99.90;;;;;;4165376;28;20679;-88
2022/04/02 10:42:07;;;;;;;4.17;1.80;;;6.30;99.90;;;;;;4165258;28;20770;-88
2022/04/02 10:44:22;;;;;;;4.83;2.10;;;6.30;99.90;;;;;;4149328;28;20669;-88
2022/04/02 10:46:25;;;;;;;3.53;1.87;;;6.30;99.90;;;;;;4148999;28;20201;-88
2022/04/02 10:48:51;;;;;;;4.83;2.00;;;6.00;99.90;;;;;;4149096;28;20225;-88
2022/04/02 10:50:54;;;;;;;4.03;2.20;;;5.90;99.90;;;;;;4148684;28;20173;-88
2022/04/02 10:53:02;;;;;;;4.37;1.80;;;5.80;99.90;;;;;;4148422;28;20187;-88
2022/04/02 10:55:04;;;;;;;5.43;1.93;;;5.90;99.90;;;;;;4148774;28;20239;-88
2022/04/02 10:57:05;;;;;;;3.67;1.80;;;6.00;99.90;;;;;;4165304;28;20200;-88
2022/04/02 10:59:08;;;;;;;4.50;2.27;;;5.90;99.90;;;;;;4148559;28;20173;-88
2022/04/02 11:01:11;;;;;;;5.27;2.00;;;6.00;99.90;;;;;;4148944;28;20247;-88
2022/04/02 11:03:39;;;;;;;3.20;1.70;;;6.20;99.90;;;;;;4148745;28;20264;-87
2022/04/02 11:05:40;;;;;;;5.50;2.30;;;6.20;99.90;;;;;;4161056;28;20328;-89
2022/04/02 11:07:46;;;;;;;5.07;1.80;;;6.40;99.90;;;;;;4148378;28;20238;-88